sensor_id;sensor_type;location;lat;lon;timestamp;temperature;humidity
81138;DHT22;70623;50.886;3.892;2023-12-20T05:48:12;5.20;99.90
81138;DHT22;70623;50.886;3.892;2023-12-20T05:50:37;5.20;99.90
81138;DHT22;70623;50.886;3.892;2023-12-20T05:53:03;5.40;99.90
81138;DHT22;70623;50.886;3.892;2023-12-20T05:55:29;5.60;99.90
81138;DHT22;70623;50.886;3.892;2023-12-20T05:57:54;5.70;99.90
81138;DHT22;70623;50.886;3.892;2023-12-20T06:00:20;5.80;99.90
81138;DHT22;70623;50.886;3.892;2023-12-20T06:02:48;5.90;99.90
81138;DHT22;70623;50.886;3.892;2023-12-20T06:05:16;6.00;99.90
81138;DHT22;70623;50.886;3.892;2023-12-20T06:07:42;6.00;99.90
81138;DHT22;70623;50.886;3.892;2023-12-20T06:10:08;5.90;99.90
81138;DHT22;70623;50.886;3.892;2023-12-20T06:12:33;6.00;99.90
81138;DHT22;70623;50.886;3.892;2023-12-20T06:15:02;6.00;99.90
81138;DHT22;70623;50.886;3.892;2023-12-20T06:17:27;5.90;99.90
81138;DHT22;70623;50.886;3.892;2023-12-20T06:19:56;5.90;99.90
81138;DHT22;70623;50.886;3.892;2023-12-20T06:22:21;5.90;99.90
81138;DHT22;70623;50.886;3.892;2023-12-20T06:24:47;5.90;99.90
81138;DHT22;70623;50.886;3.892;2023-12-20T06:27:13;5.90;99.90
81138;DHT22;70623;50.886;3.892;2023-12-20T06:29:42;5.80;99.90
81138;DHT22;70623;50.886;3.892;2023-12-20T06:32:09;5.80;99.90
81138;DHT22;70623;50.886;3.892;2023-12-20T06:34:35;5.80;99.90
81138;DHT22;70623;50.886;3.892;2023-12-20T06:37:04;5.80;99.90
81138;DHT22;70623;50.886;3.892;2023-12-20T06:39:30;5.90;99.90
81138;DHT22;70623;50.886;3.892;2023-12-20T06:41:58;5.90;99.90
81138;DHT22;70623;50.886;3.892;2023-12-20T06:44:24;5.90;99.90
81138;DHT22;70623;50.886;3.892;2023-12-20T06:46:50;5.80;99.90
81138;DHT22;70623;50.886;3.892;2023-12-20T06:49:15;5.80;99.90
81138;DHT22;70623;50.886;3.892;2023-12-20T06:51:41;5.80;99.90
81138;DHT22;70623;50.886;3.892;2023-12-20T06:54:07;5.80;99.90
81138;DHT22;70623;50.886;3.892;2023-12-20T06:56:32;5.80;99.90
81138;DHT22;70623;50.886;3.892;2023-12-20T06:58:59;5.80;99.90
81138;DHT22;70623;50.886;3.892;2023-12-20T07:01:24;5.80;99.90
81138;DHT22;70623;50.886;3.892;2023-12-20T07:03:50;5.70;99.90
81138;DHT22;70623;50.886;3.892;2023-12-20T07:06:16;5.70;99.90
81138;DHT22;70623;50.886;3.892;2023-12-20T07:08:42;5.70;99.90
81138;DHT22;70623;50.886;3.892;2023-12-20T07:11:08;5.70;99.90
81138;DHT22;70623;50.886;3.892;2023-12-20T07:13:34;5.60;99.90
81138;DHT22;70623;50.886;3.892;2023-12-20T07:15:59;5.70;99.90
81138;DHT22;70623;50.886;3.892;2023-12-20T07:18:25;5.60;99.90
81138;DHT22;70623;50.886;3.892;2023-12-20T07:20:51;5.60;99.90
81138;DHT22;70623;50.886;3.892;2023-12-20T07:23:16;5.60;99.90
81138;DHT22;70623;50.886;3.892;2023-12-20T07:25:42;5.60;99.90
81138;DHT22;70623;50.886;3.892;2023-12-20T07:28:08;5.60;99.90
81138;DHT22;70623;50.886;3.892;2023-12-20T07:30:33;5.60;99.90
81138;DHT22;70623;50.886;3.892;2023-12-20T07:32:59;5.60;99.90
81138;DHT22;70623;50.886;3.892;2023-12-20T07:35:26;5.60;99.90
81138;DHT22;70623;50.886;3.892;2023-12-20T07:37:52;5.60;99.90
81138;DHT22;70623;50.886;3.892;2023-12-20T07:40:17;5.60;99.90
81138;DHT22;70623;50.886;3.892;2023-12-20T07:42:43;5.60;99.90
81138;DHT22;70623;50.886;3.892;2023-12-20T07:45:11;5.60;99.90
81138;DHT22;70623;50.886;3.892;2023-12-20T07:47:37;5.60;99.90
81138;DHT22;70623;50.886;3.892;2023-12-20T07:50:03;5.60;99.90
81138;DHT22;70623;50.886;3.892;2023-12-20T07:52:31;5.60;99.90
81138;DHT22;70623;50.886;3.892;2023-12-20T07:55:00;5.50;99.90
81138;DHT22;70623;50.886;3.892;2023-12-20T08:59:35;5.70;99.90
81138;DHT22;70623;50.886;3.892;2023-12-20T09:02:01;6.50;99.90
81138;DHT22;70623;50.886;3.892;2023-12-20T09:04:27;6.50;99.90
81138;DHT22;70623;50.886;3.892;2023-12-20T09:06:53;6.60;99.90
81138;DHT22;70623;50.886;3.892;2023-12-20T09:09:19;6.70;99.90
81138;DHT22;70623;50.886;3.892;2023-12-20T09:11:45;6.80;99.90
81138;DHT22;70623;50.886;3.892;2023-12-20T09:14:13;6.90;99.90
81138;DHT22;70623;50.886;3.892;2023-12-20T09:16:39;7.10;99.90
81138;DHT22;70623;50.886;3.892;2023-12-20T09:19:05;7.20;99.90
81138;DHT22;70623;50.886;3.892;2023-12-20T09:21:31;7.40;99.90
81138;DHT22;70623;50.886;3.892;2023-12-20T09:23:57;7.50;99.90
81138;DHT22;70623;50.886;3.892;2023-12-20T09:26:23;7.30;99.90
81138;DHT22;70623;50.886;3.892;2023-12-20T09:28:48;7.10;99.90
81138;DHT22;70623;50.886;3.892;2023-12-20T09:31:14;7.10;99.90
81138;DHT22;70623;50.886;3.892;2023-12-20T09:33:40;7.20;99.90
81138;DHT22;70623;50.886;3.892;2023-12-20T09:36:06;7.20;99.90
81138;DHT22;70623;50.886;3.892;2023-12-20T09:38:32;7.20;99.90
81138;DHT22;70623;50.886;3.892;2023-12-20T09:40:58;7.20;99.90
81138;DHT22;70623;50.886;3.892;2023-12-20T09:43:24;7.30;99.90
81138;DHT22;70623;50.886;3.892;2023-12-20T09:46:00;7.40;99.90
81138;DHT22;70623;50.886;3.892;2023-12-20T09:48:27;7.50;99.90
81138;DHT22;70623;50.886;3.892;2023-12-20T09:50:54;7.80;99.90
81138;DHT22;70623;50.886;3.892;2023-12-20T09:53:21;7.70;99.90
81138;DHT22;70623;50.886;3.892;2023-12-20T09:55:48;7.70;99.90
81138;DHT22;70623;50.886;3.892;2023-12-20T10:51:08;7.50;99.90
81138;DHT22;70623;50.886;3.892;2023-12-20T10:53:35;7.60;99.90
81138;DHT22;70623;50.886;3.892;2023-12-20T10:56:03;7.80;99.90
81138;DHT22;70623;50.886;3.892;2023-12-20T10:58:30;7.90;99.90
81138;DHT22;70623;50.886;3.892;2023-12-20T11:01:01;8.00;99.90
81138;DHT22;70623;50.886;3.892;2023-12-20T11:03:35;8.00;99.90
81138;DHT22;70623;50.886;3.892;2023-12-20T11:06:10;8.00;99.90
81138;DHT22;70623;50.886;3.892;2023-12-20T11:14:46;8.10;99.90
81138;DHT22;70623;50.886;3.892;2023-12-20T11:17:17;8.20;99.90
81138;DHT22;70623;50.886;3.892;2023-12-20T11:20:04;8.20;99.90
81138;DHT22;70623;50.886;3.892;2023-12-20T11:22:33;8.20;99.90
81138;DHT22;70623;50.886;3.892;2023-12-20T11:25:05;8.30;99.90
81138;DHT22;70623;50.886;3.892;2023-12-20T11:27:34;8.30;99.90
81138;DHT22;70623;50.886;3.892;2023-12-20T11:30:04;8.30;99.90
81138;DHT22;70623;50.886;3.892;2023-12-20T11:32:35;8.30;99.90
81138;DHT22;70623;50.886;3.892;2023-12-20T11:37:36;8.40;99.90
81138;DHT22;70623;50.886;3.892;2023-12-20T11:40:05;8.40;99.90
81138;DHT22;70623;50.886;3.892;2023-12-20T11:42:51;8.50;99.90
81138;DHT22;70623;50.886;3.892;2023-12-20T11:45:26;8.50;99.90
81138;DHT22;70623;50.886;3.892;2023-12-20T11:47:52;8.60;99.90
81138;DHT22;70623;50.886;3.892;2023-12-20T11:50:23;8.70;99.90
81138;DHT22;70623;50.886;3.892;2023-12-20T11:52:51;8.60;99.90
81138;DHT22;70623;50.886;3.892;2023-12-20T11:55:17;8.60;99.90
81138;DHT22;70623;50.886;3.892;2023-12-20T11:57:43;8.60;99.90
81138;DHT22;70623;50.886;3.892;2023-12-20T12:00:10;8.60;99.90
81138;DHT22;70623;50.886;3.892;2023-12-20T12:02:36;8.60;99.90
81138;DHT22;70623;50.886;3.892;2023-12-20T12:05:02;8.70;99.90
81138;DHT22;70623;50.886;3.892;2023-12-20T12:07:31;8.70;99.90
81138;DHT22;70623;50.886;3.892;2023-12-20T12:09:57;8.70;99.90
81138;DHT22;70623;50.886;3.892;2023-12-20T12:12:23;8.70;99.90
81138;DHT22;70623;50.886;3.892;2023-12-20T12:14:50;8.80;99.90
81138;DHT22;70623;50.886;3.892;2023-12-20T12:17:16;8.70;99.90
81138;DHT22;70623;50.886;3.892;2023-12-20T12:19:43;8.70;99.90
81138;DHT22;70623;50.886;3.892;2023-12-20T12:22:09;8.80;99.90
81138;DHT22;70623;50.886;3.892;2023-12-20T12:24:46;8.70;99.90
81138;DHT22;70623;50.886;3.892;2023-12-20T12:27:15;8.70;99.90
81138;DHT22;70623;50.886;3.892;2023-12-20T12:29:43;8.80;99.90
81138;DHT22;70623;50.886;3.892;2023-12-20T12:32:25;8.90;99.90
81138;DHT22;70623;50.886;3.892;2023-12-20T12:34:51;8.90;99.90
81138;DHT22;70623;50.886;3.892;2023-12-20T12:37:17;8.90;99.90
81138;DHT22;70623;50.886;3.892;2023-12-20T12:39:45;8.90;99.90
81138;DHT22;70623;50.886;3.892;2023-12-20T12:42:11;8.90;99.90
81138;DHT22;70623;50.886;3.892;2023-12-20T12:44:37;8.90;99.90
81138;DHT22;70623;50.886;3.892;2023-12-20T12:47:03;8.90;99.90
81138;DHT22;70623;50.886;3.892;2023-12-20T12:49:29;9.00;99.90
81138;DHT22;70623;50.886;3.892;2023-12-20T12:51:55;9.00;99.90
81138;DHT22;70623;50.886;3.892;2023-12-20T12:54:24;9.00;99.90
81138;DHT22;70623;50.886;3.892;2023-12-20T12:56:50;9.00;99.90
81138;DHT22;70623;50.886;3.892;2023-12-20T13:50:03;9.00;99.90
81138;DHT22;70623;50.886;3.892;2023-12-20T13:52:29;9.10;99.90
81138;DHT22;70623;50.886;3.892;2023-12-20T13:54:55;9.20;99.90
81138;DHT22;70623;50.886;3.892;2023-12-20T13:57:23;9.30;99.90
81138;DHT22;70623;50.886;3.892;2023-12-20T13:59:49;9.40;99.90
81138;DHT22;70623;50.886;3.892;2023-12-20T14:02:15;9.40;99.90
81138;DHT22;70623;50.886;3.892;2023-12-20T14:04:47;9.40;99.90
81138;DHT22;70623;50.886;3.892;2023-12-20T14:07:12;9.40;99.90
81138;DHT22;70623;50.886;3.892;2023-12-20T14:09:38;9.40;99.90
81138;DHT22;70623;50.886;3.892;2023-12-20T14:12:04;9.40;99.90
81138;DHT22;70623;50.886;3.892;2023-12-20T14:14:33;9.40;99.90
81138;DHT22;70623;50.886;3.892;2023-12-20T14:16:59;9.40;99.90
81138;DHT22;70623;50.886;3.892;2023-12-20T14:19:25;9.40;99.90
81138;DHT22;70623;50.886;3.892;2023-12-20T14:21:50;9.50;99.90
81138;DHT22;70623;50.886;3.892;2023-12-20T14:24:18;9.50;99.90
81138;DHT22;70623;50.886;3.892;2023-12-20T14:26:44;9.50;99.90
81138;DHT22;70623;50.886;3.892;2023-12-20T14:29:10;9.40;99.90
81138;DHT22;70623;50.886;3.892;2023-12-20T14:31:35;9.50;99.90
81138;DHT22;70623;50.886;3.892;2023-12-20T14:34:04;9.50;99.90
81138;DHT22;70623;50.886;3.892;2023-12-20T14:36:30;9.70;99.90
81138;DHT22;70623;50.886;3.892;2023-12-20T14:38:58;9.70;99.90
81138;DHT22;70623;50.886;3.892;2023-12-20T14:41:27;9.70;99.90
81138;DHT22;70623;50.886;3.892;2023-12-20T14:43:55;9.70;99.90
81138;DHT22;70623;50.886;3.892;2023-12-20T14:46:23;9.70;99.90
81138;DHT22;70623;50.886;3.892;2023-12-20T14:48:48;9.70;99.90
81138;DHT22;70623;50.886;3.892;2023-12-20T14:51:15;9.70;99.90
81138;DHT22;70623;50.886;3.892;2023-12-20T14:53:41;9.60;99.90
81138;DHT22;70623;50.886;3.892;2023-12-20T14:56:08;9.60;99.90
81138;DHT22;70623;50.886;3.892;2023-12-20T14:58:34;9.60;99.90
81138;DHT22;70623;50.886;3.892;2023-12-20T15:01:02;9.60;99.90
81138;DHT22;70623;50.886;3.892;2023-12-20T15:03:28;9.60;99.90
81138;DHT22;70623;50.886;3.892;2023-12-20T15:05:56;9.60;99.90
81138;DHT22;70623;50.886;3.892;2023-12-20T15:08:25;9.60;99.90
81138;DHT22;70623;50.886;3.892;2023-12-20T15:10:50;9.60;99.90
81138;DHT22;70623;50.886;3.892;2023-12-20T15:13:16;9.60;99.90
81138;DHT22;70623;50.886;3.892;2023-12-20T15:15:44;9.60;99.90
81138;DHT22;70623;50.886;3.892;2023-12-20T15:18:12;9.50;99.90
81138;DHT22;70623;50.886;3.892;2023-12-20T15:20:38;9.60;99.90
81138;DHT22;70623;50.886;3.892;2023-12-20T15:23:06;9.50;99.90
81138;DHT22;70623;50.886;3.892;2023-12-20T15:25:33;9.60;99.90
81138;DHT22;70623;50.886;3.892;2023-12-20T15:27:59;9.60;99.90
81138;DHT22;70623;50.886;3.892;2023-12-20T15:30:25;9.50;99.90
81138;DHT22;70623;50.886;3.892;2023-12-20T15:32:51;9.50;99.90
81138;DHT22;70623;50.886;3.892;2023-12-20T15:35:17;9.50;99.90
81138;DHT22;70623;50.886;3.892;2023-12-20T15:37:43;9.60;99.90
81138;DHT22;70623;50.886;3.892;2023-12-20T15:40:09;9.60;99.90
81138;DHT22;70623;50.886;3.892;2023-12-20T15:42:36;9.50;99.90
81138;DHT22;70623;50.886;3.892;2023-12-20T15:45:03;9.50;99.90
81138;DHT22;70623;50.886;3.892;2023-12-20T15:47:29;9.50;99.90
81138;DHT22;70623;50.886;3.892;2023-12-20T15:49:57;9.50;99.90
81138;DHT22;70623;50.886;3.892;2023-12-20T15:52:26;9.50;99.90
81138;DHT22;70623;50.886;3.892;2023-12-20T15:54:51;9.40;99.90
81138;DHT22;70623;50.886;3.892;2023-12-20T15:57:17;9.40;99.90
81138;DHT22;70623;50.886;3.892;2023-12-20T15:59:43;9.40;99.90
81138;DHT22;70623;50.886;3.892;2023-12-20T16:02:09;9.40;99.90
81138;DHT22;70623;50.886;3.892;2023-12-20T16:04:36;9.40;99.90
81138;DHT22;70623;50.886;3.892;2023-12-20T16:07:02;9.40;99.90
81138;DHT22;70623;50.886;3.892;2023-12-20T16:09:28;9.40;99.90
81138;DHT22;70623;50.886;3.892;2023-12-20T16:11:54;9.40;99.90
81138;DHT22;70623;50.886;3.892;2023-12-20T16:14:22;9.40;99.90
81138;DHT22;70623;50.886;3.892;2023-12-20T16:16:50;9.40;99.90
81138;DHT22;70623;50.886;3.892;2023-12-20T16:19:18;9.50;99.90
81138;DHT22;70623;50.886;3.892;2023-12-20T16:21:49;9.40;99.90
81138;DHT22;70623;50.886;3.892;2023-12-20T16:24:17;9.30;99.90
81138;DHT22;70623;50.886;3.892;2023-12-20T16:26:45;9.30;99.90
81138;DHT22;70623;50.886;3.892;2023-12-20T16:29:12;9.30;99.90
81138;DHT22;70623;50.886;3.892;2023-12-20T16:31:40;9.40;99.90
81138;DHT22;70623;50.886;3.892;2023-12-20T16:34:06;9.30;99.90
81138;DHT22;70623;50.886;3.892;2023-12-20T16:36:53;9.30;99.90
81138;DHT22;70623;50.886;3.892;2023-12-20T16:39:23;9.30;99.90
81138;DHT22;70623;50.886;3.892;2023-12-20T16:41:51;9.30;99.90
81138;DHT22;70623;50.886;3.892;2023-12-20T16:44:17;9.30;99.90
81138;DHT22;70623;50.886;3.892;2023-12-20T16:46:45;9.30;99.90
81138;DHT22;70623;50.886;3.892;2023-12-20T16:49:11;9.40;99.90
81138;DHT22;70623;50.886;3.892;2023-12-20T16:51:37;9.50;99.90
81138;DHT22;70623;50.886;3.892;2023-12-20T16:54:03;9.40;99.90
81138;DHT22;70623;50.886;3.892;2023-12-20T16:56:29;9.30;99.90
81138;DHT22;70623;50.886;3.892;2023-12-20T16:58:54;9.30;99.90
81138;DHT22;70623;50.886;3.892;2023-12-20T17:01:20;9.30;99.90
81138;DHT22;70623;50.886;3.892;2023-12-20T17:03:47;9.40;99.90
81138;DHT22;70623;50.886;3.892;2023-12-20T17:06:13;9.30;99.90
81138;DHT22;70623;50.886;3.892;2023-12-20T17:08:39;9.40;99.90
81138;DHT22;70623;50.886;3.892;2023-12-20T17:11:05;9.30;99.90
81138;DHT22;70623;50.886;3.892;2023-12-20T17:13:31;9.30;99.90
81138;DHT22;70623;50.886;3.892;2023-12-20T17:15:59;9.30;99.90
81138;DHT22;70623;50.886;3.892;2023-12-20T17:18:24;9.30;99.90
81138;DHT22;70623;50.886;3.892;2023-12-20T17:20:51;9.30;99.90
81138;DHT22;70623;50.886;3.892;2023-12-20T17:23:19;9.20;99.90
